Amherst, OH

5:39 PM EDT on October 22, 2014 (GMT -0400)
Vermilion Township | Change Station
CLOSE
Current Station
Personal Weather Station
Location: Vermilion, OH
Elevation: 689 ft
Nearby Weather Stations

Elev 689 ft 41.39 °N, 82.36 °W | Updated 9 minutes ago

Overcast
Overcast
52.7 °F
Feels Like 52.7 °F
N
4.7
Wind Variable Wind from NNE

Today
High -- | Low -- °F
--% Chance of Precip.
Yesterday
High -- | Low -- °F
Precip. -- in
7:48 AM 6:37 PM
Waning Crescent, 1% visible
Pressure 30.27 in
Visibility 10.0 miles
Clouds Few 2500 ft
Overcast 3300 ft
Dew Point 41 °F
Humidity 65%
Rainfall 0.00 in
Snow Depth Not available.
UV 0 out of 12
Pollen .30 out of 12
Ozone Good
PM2.5 Good
Flu Activity Sporadic
METAR KLPR 222053Z AUTO 02006KT 10SM FEW025 OVC033 11/06 A3026 RMK AO2 SLP250 T01060056 51000 TSNO

More Conditions Fewer Conditions

Pressure 30.27 in
Visibility 10.0 miles
Clouds Few 2500 ft
Overcast 3300 ft
Dew Point 41 °F
Humidity 65%
Rainfall 0.00 in
Snow Depth Not available.
UV 0 out of 12
Pollen .30 out of 12
Ozone Good
PM2.5 Good
Flu Activity Sporadic
METAR KLPR 222053Z AUTO 02006KT 10SM FEW025 OVC033 11/06 A3026 RMK AO2 SLP250 T01060056 51000 TSNO

More Conditions Fewer Conditions

10-Day Weather Forecast

Almanac

Astronomy

Oct. 22, 2014 Rise Set
Actual Time 7:48 AM EDT 6:37 PM EDT
Civil Twilight 7:20 AM EDT 7:05 PM EDT
Nautical Twilight 6:48 AM EDT 7:37 PM EDT
Astronomical Twilight 6:16 AM EDT 8:09 PM EDT
Moon 6:28 AM EDT 6:04 PM EDT
Length of Visible Light 11h 45m
Length of Day
10h 48m
Tomorrow will be 2m 35s shorter.
Waning Crescent, 1% of the Moon is Illuminated
Today
Waning Crescent
Oct 23
New
Oct 30
First Quarter
Nov 6
Full
Nov 14
Last Quarter

Today's Extremes

State Highs State Lows

Community

WunderPhotos

Upload Photos

1,764,046 photos uploaded!

WunderBlogs® & News

By Dr. Jeff Masters
Director of Meteorology, Weather Underground
By Kari Strenfel
Meteorologist, Weather Underground
By Christopher C. Burt
Weather Historian, Weather Underground
October 22, 2014
October 22, 2014
October 22, 2014

Nearby

Air Quality

  Air Quality AQ Index Pollutant
Yesterday Good
PM10
Yesterday Good
OZONE
Current Good
PM2.5
Current Good
OZONE
Wednesday Good
PM2.5
Wednesday Good
OZONE
Thursday Good
PM2.5
Thursday Good
OZONE
Friday Good
PM2.5
Friday Good
OZONE
Saturday Good
PM2.5
Saturday Good
OZONE

Snow Depth

Station Depth Elevation
No new snow has been reported.

Earthquake Activity

City Distance Mag. Time & Date
No recent earthquake activity has been reported nearby.
Minimum magnitude displayed is 2.5.

Coastal Water Temperatures

Place Temperature
Cleveland, OH 57.9 °F
Marblehead, OH 53.1 °F
Fairport, OH 52.0 °F

Nearby Weather Stations